createdAt,value
2018-04-02T00:01:28.439Z,7.65
2018-04-02T00:03:56.090Z,7.66
2018-04-02T00:06:23.698Z,7.70
2018-04-02T00:08:51.396Z,7.76
2018-04-02T00:11:18.951Z,7.76
2018-04-02T00:13:46.609Z,7.75
2018-04-02T00:16:14.199Z,7.70
2018-04-02T00:18:41.969Z,7.58
2018-04-02T00:21:09.571Z,7.46
2018-04-02T00:23:37.298Z,7.37
2018-04-02T00:26:04.920Z,7.33
2018-04-02T00:28:32.633Z,7.31
2018-04-02T00:31:00.271Z,7.25
2018-04-02T00:33:27.987Z,7.19
2018-04-02T00:35:55.566Z,7.15
2018-04-02T00:38:23.203Z,7.15
2018-04-02T00:40:50.791Z,7.15
2018-04-02T00:43:18.521Z,7.18
2018-04-02T00:45:46.122Z,7.28
2018-04-02T00:48:13.718Z,7.19
2018-04-02T00:50:41.364Z,7.15
2018-04-02T00:53:09.000Z,7.23
2018-04-02T00:55:36.631Z,7.31
2018-04-02T00:58:04.243Z,7.35
2018-04-02T01:00:31.883Z,7.35
2018-04-02T01:02:59.488Z,7.22
2018-04-02T01:05:27.134Z,7.22
2018-04-02T01:07:54.740Z,7.17
2018-04-02T01:10:22.433Z,7.12
2018-04-02T01:12:50.067Z,7.11
2018-04-02T01:15:17.694Z,7.10
2018-04-02T01:17:45.306Z,7.18
2018-04-02T01:20:12.928Z,7.26
2018-04-02T01:22:40.531Z,7.32
2018-04-02T01:25:08.182Z,7.40
2018-04-02T01:27:35.765Z,7.44
2018-04-02T01:30:03.414Z,7.48
2018-04-02T01:32:31.001Z,7.48
2018-04-02T01:34:58.667Z,7.48
2018-04-02T01:37:26.311Z,7.45
2018-04-02T01:39:53.962Z,7.42
2018-04-02T01:42:21.593Z,7.38
2018-04-02T01:44:49.190Z,7.35
2018-04-02T01:47:16.809Z,7.18
2018-04-02T01:49:44.543Z,7.13
2018-04-02T01:52:12.174Z,7.16
2018-04-02T01:54:39.787Z,7.16
2018-04-02T01:57:07.423Z,7.21
2018-04-02T01:59:35.046Z,7.26
2018-04-02T02:02:02.725Z,7.28
2018-04-02T02:04:30.322Z,7.29
2018-04-02T02:06:57.941Z,7.30
2018-04-02T02:09:25.551Z,7.32
2018-04-02T02:11:53.182Z,7.24
2018-04-02T02:14:20.795Z,7.22
2018-04-02T02:16:48.480Z,7.18
2018-04-02T02:19:16.082Z,7.09
2018-04-02T02:21:43.727Z,7.05
2018-04-02T02:24:11.314Z,6.90
2018-04-02T02:26:38.906Z,6.80
2018-04-02T02:29:06.534Z,6.71
2018-04-02T02:31:34.228Z,6.63
2018-04-02T02:34:01.864Z,6.61
2018-04-02T02:36:29.491Z,6.68
2018-04-02T02:38:57.118Z,6.66
2018-04-02T02:41:24.722Z,6.66
2018-04-02T02:43:52.398Z,6.70
2018-04-02T02:46:19.990Z,6.72
2018-04-02T02:48:47.619Z,6.72
2018-04-02T02:51:15.210Z,6.71
2018-04-02T02:53:42.859Z,6.66
2018-04-02T02:56:10.437Z,6.68
2018-04-02T02:58:38.068Z,6.65
2018-04-02T03:01:05.685Z,6.56
2018-04-02T03:03:33.372Z,6.49
2018-04-02T03:06:00.973Z,6.38
2018-04-02T03:08:28.611Z,6.39
2018-04-02T03:10:56.272Z,6.33
2018-04-02T03:13:23.918Z,6.25
2018-04-02T03:15:51.515Z,6.14
2018-04-02T03:18:19.113Z,6.11
2018-04-02T03:20:46.754Z,6.17
2018-04-02T03:23:14.358Z,6.15
2018-04-02T03:25:41.991Z,6.19
2018-04-02T03:28:09.596Z,6.24
2018-04-02T03:30:37.243Z,6.23
2018-04-02T03:33:04.846Z,6.24
2018-04-02T03:35:32.508Z,6.13
2018-04-02T03:38:00.127Z,6.13
2018-04-02T03:40:27.767Z,6.09
2018-04-02T03:42:55.370Z,6.07
2018-04-02T03:45:23.044Z,6.03
2018-04-02T03:47:50.634Z,5.97
2018-04-02T03:50:18.281Z,5.99
2018-04-02T03:52:45.900Z,6.06
2018-04-02T03:55:13.532Z,6.10
2018-04-02T03:57:41.123Z,6.13
2018-04-02T04:00:08.762Z,6.09
2018-04-02T04:02:36.363Z,6.07
2018-04-02T04:05:04.029Z,6.12
2018-04-02T04:07:31.681Z,5.99
2018-04-02T04:09:59.314Z,5.88
2018-04-02T04:12:26.955Z,5.85
2018-04-02T04:14:54.573Z,5.83
2018-04-02T04:17:22.320Z,5.79
2018-04-02T04:19:49.927Z,5.76
2018-04-02T04:22:17.572Z,5.79
2018-04-02T04:24:45.168Z,5.78
2018-04-02T04:27:12.790Z,5.87
2018-04-02T04:29:40.394Z,5.98
2018-04-02T04:32:08.050Z,5.98
2018-04-02T04:34:35.638Z,5.91
2018-04-02T04:37:03.304Z,5.92
2018-04-02T04:39:30.903Z,5.99
2018-04-02T04:41:58.562Z,6.02
2018-04-02T04:44:26.218Z,6.03
2018-04-02T04:46:53.858Z,5.93
2018-04-02T04:49:21.471Z,5.99
2018-04-02T04:51:49.120Z,6.03
2018-04-02T04:54:16.715Z,6.03
2018-04-02T04:56:44.431Z,6.03
2018-04-02T04:59:12.063Z,5.97
2018-04-02T05:01:39.691Z,5.96
2018-04-02T05:04:07.344Z,5.86
2018-04-02T05:06:34.941Z,5.74
2018-04-02T05:09:02.595Z,5.75
2018-04-02T05:11:30.198Z,5.75
2018-04-02T05:13:57.835Z,5.78
2018-04-02T05:16:25.439Z,5.76
2018-04-02T05:18:53.066Z,5.75
2018-04-02T05:21:20.667Z,5.81
2018-04-02T05:23:48.397Z,5.91
2018-04-02T05:26:16.019Z,5.90
2018-04-02T05:28:43.658Z,5.95
2018-04-02T05:31:11.272Z,5.86
2018-04-02T05:33:38.899Z,5.83
2018-04-02T05:36:06.487Z,5.81
2018-04-02T05:38:34.134Z,5.78
2018-04-02T05:41:02.218Z,5.80
2018-04-02T05:43:29.906Z,5.84
2018-04-02T05:45:57.495Z,5.88
2018-04-02T05:48:25.094Z,5.90
2018-04-02T05:50:52.962Z,5.92
2018-04-02T05:53:20.607Z,5.91
2018-04-02T05:55:48.227Z,5.93
2018-04-02T05:58:15.860Z,5.92
2018-04-02T06:00:43.502Z,5.96
2018-04-02T06:03:11.095Z,6.02
2018-04-02T06:05:38.746Z,5.99
2018-04-02T06:08:06.353Z,5.97
2018-04-02T06:10:34.016Z,5.95
2018-04-02T06:13:01.580Z,6.05
2018-04-02T06:15:29.218Z,6.10
2018-04-02T06:17:56.833Z,6.08
2018-04-02T06:20:24.529Z,6.10
2018-04-02T06:22:52.188Z,6.07
2018-04-02T06:25:19.882Z,6.10
2018-04-02T06:27:47.490Z,6.10
2018-04-02T06:30:15.210Z,6.11
2018-04-02T06:32:42.823Z,6.15
2018-04-02T06:35:10.479Z,6.16
2018-04-02T06:37:38.171Z,6.21
2018-04-02T06:40:05.758Z,6.26
2018-04-02T06:42:33.395Z,6.30
2018-04-02T06:45:00.983Z,6.35
2018-04-02T06:47:28.779Z,6.35
2018-04-02T06:49:56.472Z,6.39
2018-04-02T06:52:24.114Z,6.43
2018-04-02T06:54:51.710Z,6.47
2018-04-02T06:57:19.334Z,6.55
2018-04-02T06:59:46.937Z,6.62
2018-04-02T07:02:14.714Z,6.68
2018-04-02T07:04:42.331Z,6.76
2018-04-02T07:07:09.962Z,6.78
2018-04-02T07:09:37.579Z,6.82
2018-04-02T07:12:05.278Z,6.87
2018-04-02T07:14:32.900Z,6.95
2018-04-02T07:17:00.527Z,7.01
2018-04-02T07:19:28.117Z,7.05
2018-04-02T07:21:55.766Z,7.13
2018-04-02T07:24:23.552Z,7.17
2018-04-02T07:26:51.140Z,7.19
2018-04-02T07:29:18.777Z,7.25
2018-04-02T07:31:46.377Z,7.28
2018-04-02T07:34:14.016Z,7.31
2018-04-02T07:36:41.627Z,7.35
2018-04-02T07:39:09.273Z,7.42
2018-04-02T07:41:36.869Z,7.49
2018-04-02T07:44:04.497Z,7.56
2018-04-02T07:46:32.117Z,7.61
2018-04-02T07:48:59.849Z,7.62
2018-04-02T07:51:27.556Z,7.68
2018-04-02T07:53:55.226Z,7.71
2018-04-02T07:56:22.833Z,7.79
2018-04-02T07:58:50.469Z,7.86
2018-04-02T08:01:18.184Z,7.95
2018-04-02T08:03:45.855Z,7.97
2018-04-02T08:06:13.489Z,8.03
2018-04-02T08:08:41.204Z,8.07
2018-04-02T08:11:08.752Z,8.10
2018-04-02T08:13:36.444Z,8.23
2018-04-02T08:16:04.074Z,8.26
2018-04-02T08:18:31.680Z,8.32
2018-04-02T08:20:59.315Z,8.33
2018-04-02T08:23:26.903Z,8.36
2018-04-02T08:25:54.576Z,8.41
2018-04-02T08:28:22.207Z,8.47
2018-04-02T08:30:49.815Z,8.57
2018-04-02T08:33:17.410Z,8.64
2018-04-02T08:35:45.063Z,8.70
2018-04-02T08:38:12.716Z,8.77
2018-04-02T08:40:40.498Z,8.75
2018-04-02T08:43:08.175Z,8.78
2018-04-02T08:45:35.776Z,8.89
2018-04-02T08:48:03.411Z,8.91
2018-04-02T08:50:31.004Z,8.93
2018-04-02T08:52:58.668Z,9.00
2018-04-02T08:55:26.265Z,9.05
2018-04-02T08:57:53.930Z,9.10
2018-04-02T09:00:21.514Z,9.13
2018-04-02T09:02:49.233Z,9.13
2018-04-02T09:05:16.876Z,9.18
2018-04-02T09:07:44.505Z,9.25
2018-04-02T09:10:12.114Z,9.28
2018-04-02T09:12:39.759Z,9.35
2018-04-02T09:15:07.358Z,9.33
2018-04-02T09:17:34.999Z,9.42
2018-04-02T09:20:02.594Z,9.48
2018-04-02T09:22:30.222Z,9.55
2018-04-02T09:24:57.850Z,9.68
2018-04-02T09:27:25.666Z,9.76
2018-04-02T09:29:53.293Z,9.84
2018-04-02T09:32:20.897Z,9.96
2018-04-02T09:34:48.569Z,10.04
2018-04-02T09:37:16.255Z,10.12
2018-04-02T09:39:43.902Z,10.12
2018-04-02T09:42:11.523Z,10.14
2018-04-02T09:44:39.169Z,10.26
2018-04-02T09:47:06.781Z,10.36
2018-04-02T09:49:34.430Z,10.52
2018-04-02T09:52:02.059Z,10.61
2018-04-02T09:54:29.695Z,10.66
2018-04-02T09:56:57.316Z,10.73
2018-04-02T09:59:25.122Z,10.71
2018-04-02T10:01:55.314Z,10.64
2018-04-02T10:04:28.346Z,10.75
2018-04-02T10:06:55.992Z,10.88
2018-04-02T10:09:23.659Z,10.87
2018-04-02T10:11:51.269Z,11.02
2018-04-02T10:14:18.934Z,11.15
2018-04-02T10:16:46.570Z,11.26
2018-04-02T10:19:14.238Z,11.37
2018-04-02T10:21:41.862Z,11.36
2018-04-02T10:24:09.554Z,11.41
2018-04-02T10:26:37.179Z,11.48
2018-04-02T10:29:04.791Z,11.46
2018-04-02T10:31:32.505Z,11.44
2018-04-02T10:34:00.122Z,11.44
2018-04-02T10:36:27.767Z,11.54
2018-04-02T10:38:55.365Z,11.58
2018-04-02T10:41:23.020Z,11.54
2018-04-02T10:43:50.689Z,11.58
2018-04-02T10:46:18.398Z,11.64
2018-04-02T10:48:46.042Z,11.68
2018-04-02T10:51:13.672Z,11.80
2018-04-02T10:53:41.293Z,11.97
2018-04-02T10:56:08.967Z,12.13
2018-04-02T10:58:36.691Z,12.43
2018-04-02T11:01:04.385Z,12.67
2018-04-02T11:03:31.996Z,12.87
2018-04-02T11:05:59.612Z,12.89
2018-04-02T11:08:27.262Z,12.90
2018-04-02T11:10:54.892Z,12.73
2018-04-02T11:13:22.554Z,12.45
2018-04-02T11:15:50.170Z,12.38
2018-04-02T11:18:17.818Z,12.24
2018-04-02T11:20:45.477Z,12.15
2018-04-02T11:23:13.147Z,12.13
2018-04-02T11:25:40.794Z,12.16
2018-04-02T11:28:08.458Z,12.14
2018-04-02T11:30:36.098Z,12.15
2018-04-02T11:33:03.990Z,12.19
2018-04-02T11:35:31.608Z,12.20
2018-04-02T11:37:59.287Z,12.25
2018-04-02T11:40:26.930Z,12.30
2018-04-02T11:42:54.637Z,12.30
2018-04-02T11:45:22.198Z,12.33
2018-04-02T11:47:49.876Z,12.47
2018-04-02T11:50:17.438Z,12.49
2018-04-02T11:52:45.111Z,12.45
2018-04-02T11:55:12.769Z,12.46
2018-04-02T11:57:40.381Z,12.57
2018-04-02T12:00:08.050Z,12.64
2018-04-02T12:02:35.652Z,12.67
2018-04-02T12:05:03.396Z,12.63
2018-04-02T12:07:31.005Z,12.73
2018-04-02T12:09:58.637Z,12.90
2018-04-02T12:12:26.273Z,12.83
2018-04-02T12:14:53.933Z,12.90
2018-04-02T12:17:21.542Z,12.84
2018-04-02T12:19:49.196Z,12.80
2018-04-02T12:22:16.826Z,12.73
2018-04-02T12:24:44.455Z,12.66
2018-04-02T12:27:12.068Z,12.63
2018-04-02T12:29:39.694Z,12.64
2018-04-02T12:32:07.310Z,12.68
2018-04-02T12:34:34.967Z,12.72
2018-04-02T12:37:02.585Z,12.72
2018-04-02T12:39:30.375Z,12.77
2018-04-02T12:41:57.968Z,12.81
2018-04-02T12:44:25.592Z,12.86
2018-04-02T12:46:53.257Z,12.85
2018-04-02T12:49:20.899Z,12.87
2018-04-02T12:51:48.534Z,12.90
2018-04-02T12:54:16.155Z,12.93
2018-04-02T12:56:43.875Z,12.96
2018-04-02T12:59:11.612Z,12.98
2018-04-02T13:01:39.200Z,12.96
2018-04-02T13:04:06.842Z,12.99
2018-04-02T13:06:34.469Z,13.03
2018-04-02T13:09:02.082Z,13.07
2018-04-02T13:11:29.748Z,13.14
2018-04-02T13:13:57.518Z,13.18
2018-04-02T13:16:25.164Z,13.19
2018-04-02T13:18:52.770Z,13.21
2018-04-02T13:21:20.498Z,13.29
2018-04-02T13:23:48.144Z,13.31
2018-04-02T13:26:15.848Z,13.31
2018-04-02T13:28:43.455Z,13.33
2018-04-02T13:31:11.110Z,13.44
2018-04-02T13:33:38.708Z,13.53
2018-04-02T13:36:06.515Z,13.64
2018-04-02T13:38:34.114Z,13.71
2018-04-02T13:41:01.806Z,13.79
2018-04-02T13:43:29.366Z,13.91
2018-04-02T13:45:57.010Z,14.13
2018-04-02T13:48:24.706Z,14.31
2018-04-02T13:50:52.393Z,14.46
2018-04-02T13:53:20.133Z,14.75
2018-04-02T13:55:47.794Z,14.96
2018-04-02T13:58:15.435Z,15.07
2018-04-02T14:00:43.030Z,15.06
2018-04-02T14:03:10.642Z,15.12
2018-04-02T14:05:38.239Z,15.03
2018-04-02T14:08:05.874Z,15.02
2018-04-02T14:10:33.460Z,14.92
2018-04-02T14:13:01.090Z,14.76
2018-04-02T14:15:28.704Z,14.72
2018-04-02T14:17:56.347Z,14.66
2018-04-02T14:20:24.003Z,14.68
2018-04-02T14:22:51.636Z,14.63
2018-04-02T14:25:19.251Z,14.59
2018-04-02T14:27:46.955Z,14.54
2018-04-02T14:30:14.579Z,14.49
2018-04-02T14:32:42.202Z,14.50
2018-04-02T14:35:09.819Z,14.54
2018-04-02T14:37:37.486Z,14.61
2018-04-02T14:40:05.074Z,14.54
2018-04-02T14:42:32.669Z,14.50
2018-04-02T14:45:00.301Z,14.50
2018-04-02T14:47:27.885Z,14.42
2018-04-02T14:49:55.554Z,14.42
2018-04-02T14:52:23.161Z,14.42
2018-04-02T14:54:50.877Z,14.46
2018-04-02T14:57:18.487Z,14.45
2018-04-02T14:59:46.124Z,14.42
2018-04-02T15:02:13.726Z,14.41
2018-04-02T15:04:41.358Z,14.41
2018-04-02T15:07:08.974Z,14.36
2018-04-02T15:09:36.624Z,14.33
2018-04-02T15:12:04.226Z,14.27
2018-04-02T15:14:31.864Z,14.31
2018-04-02T15:16:59.536Z,14.29
2018-04-02T15:19:27.214Z,14.26
2018-04-02T15:21:54.821Z,14.21
2018-04-02T15:24:22.451Z,14.16
2018-04-02T15:26:50.143Z,14.12
2018-04-02T15:29:17.844Z,14.09
2018-04-02T15:31:45.388Z,14.02
2018-04-02T15:34:13.083Z,14.00
2018-04-02T15:36:40.702Z,14.00
2018-04-02T15:39:08.367Z,13.99
2018-04-02T15:41:35.995Z,13.96
2018-04-02T15:44:03.605Z,13.97
2018-04-02T15:46:31.228Z,13.98
2018-04-02T15:49:00.638Z,13.99
2018-04-02T15:51:28.242Z,14.04
2018-04-02T15:53:55.846Z,14.08
2018-04-02T15:56:23.526Z,14.08
2018-04-02T15:58:51.098Z,14.10
2018-04-02T16:01:18.851Z,14.12
2018-04-02T16:03:46.458Z,14.10
2018-04-02T16:06:14.112Z,14.11
2018-04-02T16:08:41.816Z,14.12
2018-04-02T16:11:09.479Z,14.11
2018-04-02T16:13:37.121Z,14.11
2018-04-02T16:16:04.727Z,14.08
2018-04-02T16:18:32.332Z,14.08
2018-04-02T16:20:59.928Z,14.08
2018-04-02T16:23:27.550Z,14.06
2018-04-02T16:25:55.148Z,14.05
2018-04-02T16:28:22.855Z,14.01
2018-04-02T16:30:50.476Z,14.01
2018-04-02T16:33:18.176Z,13.97
2018-04-02T16:35:45.795Z,13.96
2018-04-02T16:38:13.427Z,13.96
2018-04-02T16:40:41.043Z,13.97
2018-04-02T16:43:08.677Z,13.95
2018-04-02T16:45:36.288Z,13.91
2018-04-02T16:48:03.934Z,13.92
2018-04-02T16:50:31.541Z,13.91
2018-04-02T16:52:59.218Z,13.90
2018-04-02T16:55:26.831Z,13.93
2018-04-02T16:57:54.514Z,13.94
2018-04-02T17:00:22.158Z,13.96
2018-04-02T17:02:49.790Z,13.98
2018-04-02T17:05:17.432Z,13.99
2018-04-02T17:07:45.025Z,13.98
2018-04-02T17:10:12.699Z,13.97
2018-04-02T17:12:40.311Z,13.95
2018-04-02T17:15:07.983Z,13.94
2018-04-02T17:17:35.633Z,13.93
2018-04-02T17:20:03.277Z,13.96
2018-04-02T17:22:30.900Z,13.98
2018-04-02T17:24:58.639Z,13.98
2018-04-02T17:27:26.239Z,14.02
2018-04-02T17:29:53.881Z,14.02
2018-04-02T17:32:21.558Z,13.98
2018-04-02T17:34:49.212Z,13.93
2018-04-02T17:37:16.848Z,13.91
2018-04-02T17:39:44.514Z,13.91
2018-04-02T17:42:12.125Z,13.88
2018-04-02T17:44:39.710Z,13.82
2018-04-02T17:47:07.372Z,13.76
2018-04-02T17:49:35.063Z,13.69
2018-04-02T17:52:02.686Z,13.60
2018-04-02T17:54:30.297Z,13.54
2018-04-02T17:56:57.946Z,13.48
2018-04-02T17:59:25.567Z,13.42
2018-04-02T18:01:53.243Z,13.39
2018-04-02T18:04:20.986Z,13.32
2018-04-02T18:06:48.617Z,13.26
2018-04-02T18:09:16.257Z,13.23
2018-04-02T18:11:43.926Z,13.16
2018-04-02T18:14:12.255Z,13.12
2018-04-02T18:16:39.893Z,13.06
2018-04-02T18:19:07.575Z,12.96
2018-04-02T18:21:35.254Z,12.88
2018-04-02T18:24:02.879Z,12.84
2018-04-02T18:26:30.495Z,12.76
2018-04-02T18:28:58.182Z,12.67
2018-04-02T18:31:25.983Z,12.59
2018-04-02T18:33:53.574Z,12.51
2018-04-02T18:36:21.196Z,12.39
2018-04-02T18:38:48.850Z,12.35
2018-04-02T18:41:16.455Z,12.31
2018-04-02T18:43:44.099Z,12.28
2018-04-02T18:46:11.720Z,12.26
2018-04-02T18:48:39.427Z,12.25
2018-04-02T18:51:07.063Z,12.22
2018-04-02T18:53:34.703Z,12.11
2018-04-02T18:56:02.318Z,12.03
2018-04-02T18:58:29.946Z,12.01
2018-04-02T19:00:57.554Z,11.98
2018-04-02T19:03:25.320Z,12.00
2018-04-02T19:05:52.927Z,11.96
2018-04-02T19:08:20.620Z,11.93
2018-04-02T19:10:48.226Z,11.84
2018-04-02T19:13:15.825Z,11.81
2018-04-02T19:15:43.571Z,11.77
2018-04-02T19:18:11.173Z,11.75
2018-04-02T19:20:38.846Z,11.74
2018-04-02T19:23:06.465Z,11.67
2018-04-02T19:25:34.093Z,11.62
2018-04-02T19:28:01.849Z,11.57
2018-04-02T19:30:29.491Z,11.56
2018-04-02T19:32:57.147Z,11.49
2018-04-02T19:35:24.805Z,11.51
2018-04-02T19:37:52.431Z,11.47
2018-04-02T19:40:20.080Z,11.47
2018-04-02T19:42:47.720Z,11.48
2018-04-02T19:45:15.362Z,11.48
2018-04-02T19:47:42.994Z,11.48
2018-04-02T19:50:10.646Z,11.45
2018-04-02T19:52:38.313Z,11.45
2018-04-02T19:55:05.962Z,11.44
2018-04-02T19:57:33.571Z,11.40
2018-04-02T20:00:01.278Z,11.40
2018-04-02T20:02:28.909Z,11.44
2018-04-02T20:04:56.587Z,11.40
2018-04-02T20:07:24.240Z,11.40
2018-04-02T20:09:52.002Z,11.39
2018-04-02T20:12:19.660Z,11.40
2018-04-02T20:14:47.303Z,11.39
2018-04-02T20:17:14.979Z,11.41
2018-04-02T20:19:42.576Z,11.43
2018-04-02T20:22:10.245Z,11.40
2018-04-02T20:24:37.878Z,11.36
2018-04-02T20:27:05.527Z,11.35
2018-04-02T20:29:33.138Z,11.32
2018-04-02T20:32:00.764Z,11.27
2018-04-02T20:34:28.419Z,11.26
2018-04-02T20:36:56.057Z,11.27
2018-04-02T20:39:23.734Z,11.22
2018-04-02T20:41:51.355Z,11.23
2018-04-02T20:44:18.959Z,11.21
2018-04-02T20:46:46.836Z,11.24
2018-04-02T20:49:14.436Z,11.22
2018-04-02T20:51:42.086Z,11.21
2018-04-02T20:54:09.743Z,11.15
2018-04-02T20:56:37.314Z,11.16
2018-04-02T20:59:04.944Z,11.13
2018-04-02T21:01:32.536Z,11.04
2018-04-02T21:04:00.204Z,11.03
2018-04-02T21:06:27.806Z,11.01
2018-04-02T21:08:55.510Z,11.01
2018-04-02T21:11:23.127Z,11.00
2018-04-02T21:13:50.762Z,11.02
2018-04-02T21:16:18.362Z,11.03
2018-04-02T21:18:46.007Z,11.05
2018-04-02T21:21:13.669Z,11.04
2018-04-02T21:23:41.290Z,11.02
2018-04-02T21:26:08.927Z,11.01
2018-04-02T21:28:36.574Z,11.03
2018-04-02T21:31:04.307Z,11.04
2018-04-02T21:33:31.950Z,11.01
2018-04-02T21:35:59.536Z,10.99
2018-04-02T21:38:27.196Z,10.91
2018-04-02T21:40:54.830Z,10.86
2018-04-02T21:43:22.598Z,10.82
2018-04-02T21:45:50.302Z,10.85
2018-04-02T21:48:17.918Z,10.80
2018-04-02T21:50:45.553Z,10.84
2018-04-02T21:53:13.169Z,10.85
2018-04-02T21:55:40.804Z,10.88
2018-04-02T21:58:08.584Z,10.89
2018-04-02T22:00:36.214Z,10.88
2018-04-02T22:03:03.912Z,10.88
2018-04-02T22:05:31.633Z,10.89
2018-04-02T22:08:10.058Z,10.90
2018-04-02T22:10:37.708Z,10.92
2018-04-02T22:13:05.347Z,10.93
2018-04-02T22:15:32.959Z,10.95
2018-04-02T22:18:00.559Z,10.94
2018-04-02T22:20:28.205Z,10.95
2018-04-02T22:22:55.842Z,10.95
2018-04-02T22:25:23.473Z,10.99
2018-04-02T22:27:51.096Z,11.04
2018-04-02T22:30:18.825Z,11.05
2018-04-02T22:32:46.410Z,11.10
2018-04-02T22:35:14.077Z,11.14
2018-04-02T22:37:41.662Z,11.17
2018-04-02T22:40:09.299Z,11.23
2018-04-02T22:42:37.175Z,11.28
2018-04-02T22:45:04.822Z,11.31
2018-04-02T22:47:32.426Z,11.35
2018-04-02T22:50:00.074Z,11.34
2018-04-02T22:52:27.701Z,11.36
2018-04-02T22:54:55.378Z,11.43
2018-04-02T22:57:23.012Z,11.40
2018-04-02T22:59:50.603Z,11.36
2018-04-02T23:02:18.237Z,11.36
2018-04-02T23:04:45.847Z,11.32
2018-04-02T23:07:13.557Z,11.31
2018-04-02T23:09:41.203Z,11.26
2018-04-02T23:12:08.858Z,11.27
2018-04-02T23:14:36.502Z,11.18
2018-04-02T23:17:04.139Z,11.16
2018-04-02T23:19:31.735Z,11.14
2018-04-02T23:21:59.375Z,11.09
2018-04-02T23:24:27.028Z,11.09
2018-04-02T23:26:54.644Z,11.05
2018-04-02T23:29:22.228Z,11.02
2018-04-02T23:31:49.878Z,10.99
2018-04-02T23:34:17.454Z,11.00
2018-04-02T23:36:45.069Z,10.99
2018-04-02T23:39:12.892Z,11.00
2018-04-02T23:41:40.482Z,11.01
2018-04-02T23:44:08.131Z,10.98
2018-04-02T23:46:35.711Z,11.03
2018-04-02T23:49:03.385Z,11.04
2018-04-02T23:51:31.019Z,11.06
2018-04-02T23:53:58.685Z,11.14
2018-04-02T23:56:26.274Z,11.10
2018-04-02T23:58:53.958Z,11.05
